Time;durP1;ratioP1;P1;durP2;ratioP2;P2;SDS_P1;SDS_P2;PMS_P1;PMS_P2;Temp;Humidity;BMP_temperature;BMP_pressure;BME280_temperature;BME280_humidity;BME280_pressure;Samples;Min_cycle;Max_cycle;Signal;HPM_P1;HPM_P2
2022/11/19 00:01:14;;;;;;;6.68;3.53;;;1.80;99.90;;;;;;5051380;28;20044;-82
2022/11/19 00:03:41;;;;;;;5.65;2.78;;;1.80;99.90;;;;;;5032812;28;20064;-85
2022/11/19 00:06:13;;;;;;;6.63;3.33;;;1.80;99.90;;;;;;5051464;28;20103;-87
2022/11/19 00:08:39;;;;;;;8.00;3.55;;;1.70;99.90;;;;;;5032522;28;20106;-82
2022/11/19 00:11:14;;;;;;;7.65;4.03;;;1.70;99.90;;;;;;5032489;28;20135;-85
2022/11/19 00:13:41;;;;;;;6.32;3.58;;;1.70;99.90;;;;;;5032474;28;20064;-81
2022/11/19 00:16:10;;;;;;;8.00;4.20;;;1.60;99.90;;;;;;5050543;28;20049;-83
2022/11/19 00:18:37;;;;;;;8.40;4.07;;;1.60;99.90;;;;;;5050460;28;20528;-81
2022/11/19 00:21:08;;;;;;;6.60;3.60;;;1.60;99.90;;;;;;5032651;28;20061;-81
2022/11/19 00:23:34;;;;;;;7.05;4.05;;;1.60;99.90;;;;;;5016355;28;20049;-81
2022/11/19 00:26:12;;;;;;;7.70;3.50;;;1.50;99.90;;;;;;5032140;28;20198;-86
2022/11/19 00:28:39;;;;;;;7.57;4.10;;;1.50;99.90;;;;;;5050496;28;20444;-84
2022/11/19 00:31:06;;;;;;;5.88;3.58;;;1.50;99.90;;;;;;5050426;28;20041;-84
2022/11/19 00:33:32;;;;;;;6.90;3.42;;;1.40;99.90;;;;;;5032921;28;20045;-82
2022/11/19 00:35:59;;;;;;;7.43;4.22;;;1.40;99.90;;;;;;5053846;28;20053;-86
2022/11/19 00:38:25;;;;;;;6.28;3.47;;;1.40;99.90;;;;;;5054098;28;20064;-82
2022/11/19 00:40:52;;;;;;;6.15;2.95;;;1.30;99.90;;;;;;5054212;28;20060;-83
2022/11/19 00:46:02;;;;;;;8.60;3.60;;;1.30;99.90;;;;;;5036534;28;20064;-84
2022/11/19 00:48:28;;;;;;;7.15;3.38;;;1.20;99.90;;;;;;5054952;28;20395;-83
2022/11/19 00:50:54;;;;;;;7.28;3.75;;;1.20;99.90;;;;;;5053986;28;20060;-84
2022/11/19 00:53:20;;;;;;;7.78;4.00;;;1.10;99.90;;;;;;5036546;28;20068;-82
2022/11/19 00:55:45;;;;;;;8.05;4.28;;;1.10;99.90;;;;;;5053690;28;20052;-79
2022/11/19 00:58:11;;;;;;;6.63;3.67;;;1.00;99.90;;;;;;5035664;28;20385;-83
2022/11/19 01:00:38;;;;;;;7.05;3.80;;;1.00;99.90;;;;;;5054413;28;20084;-81
2022/11/19 01:03:04;;;;;;;7.82;4.05;;;1.00;99.90;;;;;;5020243;28;20060;-84
2022/11/19 01:05:30;;;;;;;7.90;3.40;;;0.90;99.90;;;;;;5054507;28;20055;-86
2022/11/19 01:07:56;;;;;;;7.63;4.40;;;0.90;99.90;;;;;;5054239;28;20405;-84
2022/11/19 01:10:22;;;;;;;6.70;3.50;;;0.80;99.90;;;;;;5036714;28;20417;-83
2022/11/19 01:15:32;;;;;;;6.93;3.70;;;0.80;99.90;;;;;;5053545;28;20260;-83
2022/11/19 01:17:58;;;;;;;7.97;4.28;;;0.70;99.90;;;;;;5035510;28;20128;-86
2022/11/19 01:20:24;;;;;;;6.72;3.70;;;0.70;99.90;;;;;;5053652;28;20049;-86
2022/11/19 01:22:50;;;;;;;8.35;4.47;;;0.70;99.90;;;;;;5053491;28;20052;-81
2022/11/19 01:25:15;;;;;;;6.50;4.07;;;0.70;99.90;;;;;;5052960;28;20505;-85
2022/11/19 01:27:41;;;;;;;7.85;4.05;;;0.70;99.90;;;;;;5035864;28;20147;-84
2022/11/19 01:30:08;;;;;;;8.70;3.95;;;0.70;99.90;;;;;;5053671;28;20081;-81
2022/11/19 01:32:34;;;;;;;8.10;4.13;;;0.70;99.90;;;;;;5036373;28;20088;-80
2022/11/19 01:35:00;;;;;;;8.32;4.25;;;0.70;99.90;;;;;;5036764;28;20056;-85
2022/11/19 01:37:26;;;;;;;8.40;4.25;;;0.70;99.90;;;;;;5036092;28;20084;-82
2022/11/19 01:39:52;;;;;;;8.18;4.20;;;0.70;99.90;;;;;;5035290;28;20053;-82
2022/11/19 01:42:48;;;;;;;8.45;3.97;;;0.70;99.90;;;;;;5021016;28;20103;-82
2022/11/19 01:45:24;;;;;;;7.75;4.40;;;0.70;99.90;;;;;;5053427;28;20057;-83
2022/11/19 01:47:52;;;;;;;7.00;3.63;;;0.60;99.90;;;;;;5052917;28;20134;-86
2022/11/19 01:50:19;;;;;;;7.60;4.18;;;0.70;99.90;;;;;;5054299;28;20065;-84
2022/11/19 01:52:45;;;;;;;7.72;3.95;;;0.70;99.90;;;;;;5034945;28;20103;-81
2022/11/19 01:55:11;;;;;;;7.88;4.15;;;0.70;99.90;;;;;;5034787;28;20517;-81
2022/11/19 01:57:39;;;;;;;8.80;4.40;;;0.60;99.90;;;;;;5035052;28;20124;-83
2022/11/19 02:00:06;;;;;;;7.68;4.70;;;0.60;99.90;;;;;;5054045;28;20401;-83
2022/11/19 02:02:33;;;;;;;6.72;3.75;;;0.60;99.90;;;;;;5052623;28;20048;-85
2022/11/19 02:05:00;;;;;;;7.50;3.65;;;0.60;99.90;;;;;;5035215;28;20092;-84
2022/11/19 02:07:30;;;;;;;7.97;4.13;;;0.60;99.90;;;;;;5034258;28;20078;-82
2022/11/19 02:09:58;;;;;;;9.63;4.78;;;0.60;99.90;;;;;;5017657;28;20053;-81
2022/11/19 02:12:51;;;;;;;9.02;4.05;;;0.50;99.90;;;;;;5034269;28;20128;-84
2022/11/19 02:15:47;;;;;;;7.93;4.38;;;0.50;99.90;;;;;;5052511;28;20053;-84
2022/11/19 02:18:22;;;;;;;8.60;4.45;;;0.50;99.90;;;;;;5034829;28;20062;-85
2022/11/19 02:20:53;;;;;;;7.38;3.97;;;0.50;99.90;;;;;;5034155;28;20144;-82
2022/11/19 02:23:44;;;;;;;10.20;4.63;;;0.50;99.90;;;;;;5033864;28;20056;-85
2022/11/19 02:26:38;;;;;;;8.10;4.60;;;0.40;99.90;;;;;;5033595;28;20053;-85
2022/11/19 02:29:25;;;;;;;7.97;4.03;;;0.40;99.90;;;;;;5033931;28;20451;-85
2022/11/19 02:32:44;;;;;;;7.10;4.00;;;0.40;99.90;;;;;;5017829;28;20412;-85
2022/11/19 02:35:36;;;;;;;8.60;4.85;;;0.40;99.90;;;;;;5019818;28;20107;-83
2022/11/19 02:38:28;;;;;;;7.55;4.32;;;0.30;99.90;;;;;;5030937;28;20087;-80
2022/11/19 02:41:34;;;;;;;8.73;4.22;;;0.20;99.90;;;;;;5051979;28;20053;-81
2022/11/19 02:46:55;;;;;;;9.60;4.45;;;0.20;99.90;;;;;;5033939;28;20120;-83
2022/11/19 02:49:25;;;;;;;10.02;5.53;;;0.10;99.90;;;;;;5023986;28;20064;-82
2022/11/19 02:51:51;;;;;;;9.00;4.38;;;0.10;99.90;;;;;;5033792;28;20052;-81
2022/11/19 02:54:17;;;;;;;7.55;4.18;;;0.00;99.90;;;;;;5051416;28;20080;-85
2022/11/19 02:56:51;;;;;;;10.05;4.97;;;-0.10;99.90;;;;;;5050851;28;20424;-87
2022/11/19 03:05:38;;;;;;;11.27;4.55;;;-0.10;99.90;;;;;;5051511;28;20059;-81
2022/11/19 03:08:04;;;;;;;8.82;4.55;;;-0.20;99.90;;;;;;5051024;28;20061;-82
2022/11/19 03:10:42;;;;;;;9.05;4.65;;;-0.20;99.90;;;;;;5051024;28;20107;-87
2022/11/19 03:16:41;;;;;;;9.43;4.60;;;-0.20;99.90;;;;;;5033083;28;20154;-82
2022/11/19 03:19:19;;;;;;;8.45;4.63;;;-0.30;99.90;;;;;;5033442;28;20528;-83
2022/11/19 03:21:59;;;;;;;11.68;5.47;;;-0.30;99.90;;;;;;5051743;28;20056;-80
2022/11/19 03:24:28;;;;;;;8.30;4.95;;;-0.40;99.90;;;;;;5051190;28;20080;-81
2022/11/19 03:27:03;;;;;;;7.82;3.95;;;-0.40;99.90;;;;;;5050945;28;20063;-85
2022/11/19 03:29:30;;;;;;;;;;;-0.40;99.90;;;;;;5051654;28;20123;-84
2022/11/19 03:32:04;;;;;;;9.48;4.43;;;-0.40;99.90;;;;;;5032887;28;20003;-85
2022/11/19 03:34:32;;;;;;;10.90;4.88;;;-0.40;99.90;;;;;;5032742;28;20064;-85
2022/11/19 03:37:01;;;;;;;10.32;5.20;;;-0.50;99.90;;;;;;5050840;28;20044;-81
2022/11/19 03:39:27;;;;;;;8.52;4.32;;;-0.50;99.90;;;;;;5033504;28;20049;-85
2022/11/19 03:41:55;;;;;;;8.73;4.97;;;-0.50;99.90;;;;;;5050586;28;20088;-79
2022/11/19 03:44:33;;;;;;;8.95;4.13;;;-0.50;99.90;;;;;;5050447;28;20059;-80
2022/11/19 03:47:08;;;;;;;9.88;5.15;;;-0.60;99.90;;;;;;5050400;28;20056;-81
2022/11/19 03:49:39;;;;;;;10.88;5.93;;;-0.50;99.90;;;;;;5050763;28;20060;-81
2022/11/19 03:52:09;;;;;;;7.63;4.60;;;-0.60;99.90;;;;;;5016804;28;20087;-79
2022/11/19 03:54:35;;;;;;;9.70;4.43;;;-0.60;99.90;;;;;;5050636;28;20060;-80
2022/11/19 03:57:03;;;;;;;9.07;4.80;;;-0.60;99.90;;;;;;5050720;28;20087;-79
2022/11/19 03:59:28;;;;;;;9.27;5.07;;;-0.60;99.90;;;;;;5033038;28;20106;-80
2022/11/19 04:01:58;;;;;;;7.40;4.32;;;-0.60;99.90;;;;;;5032900;28;20052;-84
2022/11/19 04:04:38;;;;;;;9.52;5.10;;;-0.70;99.90;;;;;;5032540;28;20072;-84
2022/11/19 04:07:12;;;;;;;8.30;4.75;;;-0.70;99.90;;;;;;5050498;28;20057;-84
2022/11/19 04:09:39;;;;;;;9.48;4.80;;;-0.70;99.90;;;;;;5053545;28;20047;-84
2022/11/19 04:12:07;;;;;;;10.10;5.45;;;-0.70;99.90;;;;;;5054475;28;20048;-80
2022/11/19 04:14:33;;;;;;;8.68;4.22;;;-0.70;99.90;;;;;;5036259;28;20057;-80
2022/11/19 04:16:59;;;;;;;14.60;5.72;;;-0.70;99.90;;;;;;5054657;28;20052;-81
2022/11/19 04:19:25;;;;;;;8.27;4.57;;;-0.70;99.90;;;;;;5038247;28;20052;-84
2022/11/19 04:21:50;;;;;;;9.77;5.10;;;-0.70;99.90;;;;;;5036560;28;20109;-82
2022/11/19 04:24:16;;;;;;;10.20;5.68;;;-0.70;99.90;;;;;;5036696;28;20052;-82
2022/11/19 04:26:42;;;;;;;10.07;4.90;;;-0.70;99.90;;;;;;5054203;28;20064;-84
2022/11/19 04:29:08;;;;;;;10.15;4.85;;;-0.70;99.90;;;;;;5036572;28;20501;-82
2022/11/19 04:31:35;;;;;;;9.68;5.20;;;-0.80;99.90;;;;;;5054462;28;20052;-81
2022/11/19 04:34:01;;;;;;;7.22;4.35;;;-0.70;99.90;;;;;;5036429;28;20048;-81
2022/11/19 04:36:27;;;;;;;11.25;5.60;;;-0.80;99.90;;;;;;5036221;28;20044;-80
2022/11/19 04:38:53;;;;;;;10.25;4.82;;;-0.80;99.90;;;;;;5054201;28;20405;-81
2022/11/19 04:41:19;;;;;;;8.50;4.45;;;-0.80;99.90;;;;;;5036070;28;20056;-80
2022/11/19 04:43:45;;;;;;;9.18;4.80;;;-0.80;99.90;;;;;;5019533;28;20500;-84
2022/11/19 04:46:11;;;;;;;9.02;5.38;;;-0.90;99.90;;;;;;5054458;28;20419;-84
2022/11/19 04:48:37;;;;;;;10.50;5.80;;;-0.90;99.90;;;;;;5036225;28;20045;-81
2022/11/19 04:51:03;;;;;;;8.07;4.90;;;-0.90;99.90;;;;;;5053983;28;20064;-80
2022/11/19 04:53:29;;;;;;;9.55;4.60;;;-0.90;99.90;;;;;;5035916;28;20067;-81
2022/11/19 04:55:54;;;;;;;9.23;5.63;;;-0.90;99.90;;;;;;5019425;28;20040;-79
2022/11/19 04:58:20;;;;;;;8.93;4.70;;;-0.90;99.90;;;;;;5035886;28;20071;-80
2022/11/19 05:00:47;;;;;;;11.38;5.85;;;-0.90;99.90;;;;;;5054153;28;20055;-80
2022/11/19 05:03:13;;;;;;;9.05;4.60;;;-1.00;99.90;;;;;;5035592;28;20053;-82
2022/11/19 05:05:39;;;;;;;8.25;4.60;;;-1.00;99.90;;;;;;5053542;28;20119;-79
2022/11/19 05:08:05;;;;;;;9.57;5.00;;;-1.00;99.90;;;;;;5035676;28;20141;-80
2022/11/19 05:10:31;;;;;;;10.32;4.80;;;-1.00;99.90;;;;;;5035628;28;20059;-79
2022/11/19 05:12:57;;;;;;;8.98;5.10;;;-0.90;99.90;;;;;;5053099;28;20485;-83
2022/11/19 05:15:23;;;;;;;12.35;5.28;;;-1.00;99.90;;;;;;5053391;28;20045;-83
2022/11/19 05:17:49;;;;;;;7.85;4.70;;;-1.00;99.90;;;;;;5035291;28;20401;-80
2022/11/19 05:20:15;;;;;;;10.27;5.28;;;-1.00;99.90;;;;;;5034876;28;20061;-81
2022/11/19 05:22:41;;;;;;;11.15;5.13;;;-1.00;99.90;;;;;;5053235;28;20159;-81
2022/11/19 05:25:07;;;;;;;9.20;5.45;;;-1.00;99.90;;;;;;5034792;28;20068;-84
2022/11/19 05:27:34;;;;;;;9.70;4.60;;;-1.00;99.90;;;;;;5053529;28;20114;-83
2022/11/19 05:29:59;;;;;;;8.52;4.93;;;-1.00;99.90;;;;;;5035024;28;20064;-84
2022/11/19 05:32:25;;;;;;;8.88;4.68;;;-1.00;99.90;;;;;;5052829;28;20053;-83
2022/11/19 05:34:51;;;;;;;9.13;4.85;;;-1.00;99.90;;;;;;5034557;28;20053;-83
2022/11/19 05:37:17;;;;;;;9.10;4.95;;;-1.00;99.90;;;;;;5034682;28;20053;-80
2022/11/19 05:39:43;;;;;;;9.23;4.80;;;-1.10;99.90;;;;;;5019125;28;20109;-83
2022/11/19 05:42:09;;;;;;;9.82;5.30;;;-1.10;99.90;;;;;;5056036;28;20120;-81
2022/11/19 05:44:35;;;;;;;10.05;4.70;;;-1.10;99.90;;;;;;5035545;28;20167;-83
2022/11/19 05:47:00;;;;;;;10.80;4.85;;;-1.10;99.90;;;;;;5053238;28;20111;-80
2022/11/19 05:49:26;;;;;;;8.77;4.07;;;-1.10;99.90;;;;;;5053030;28;20059;-81
2022/11/19 05:51:52;;;;;;;8.80;4.75;;;-1.10;99.90;;;;;;5052318;28;20080;-79
2022/11/19 05:54:18;;;;;;;10.98;5.05;;;-1.10;99.90;;;;;;5037028;28;20063;-85
2022/11/19 05:56:44;;;;;;;9.35;4.78;;;-1.10;99.90;;;;;;5053393;28;20142;-83
2022/11/19 05:59:10;;;;;;;10.80;4.80;;;-1.20;99.90;;;;;;5035037;28;20049;-83
2022/11/19 06:01:39;;;;;;;11.27;4.95;;;-1.20;99.90;;;;;;5035141;28;20536;-82
2022/11/19 06:04:05;;;;;;;9.80;4.57;;;-1.20;99.90;;;;;;5052719;28;20049;-81
2022/11/19 06:06:31;;;;;;;9.27;5.80;;;-1.20;99.90;;;;;;5034606;28;20115;-85
2022/11/19 06:08:57;;;;;;;10.57;5.18;;;-1.20;99.90;;;;;;5034713;28;20045;-82
2022/11/19 06:14:07;;;;;;;7.45;4.30;;;-1.20;99.90;;;;;;5034234;28;20087;-84
2022/11/19 06:16:33;;;;;;;15.23;5.72;;;-1.20;99.90;;;;;;5017399;28;20766;-84
2022/11/19 06:18:58;;;;;;;11.18;5.78;;;-1.20;99.90;;;;;;5034191;28;20136;-83
2022/11/19 06:21:24;;;;;;;10.85;5.63;;;-1.20;99.90;;;;;;5017454;28;20136;-85
2022/11/19 06:23:50;;;;;;;9.55;5.18;;;-1.20;99.90;;;;;;5052223;28;20056;-86
2022/11/19 06:26:27;;;;;;;10.07;5.53;;;-1.30;99.90;;;;;;5033984;28;20041;-81
2022/11/19 06:28:54;;;;;;;9.10;5.10;;;-1.30;99.90;;;;;;5051725;28;20097;-84
2022/11/19 06:31:21;;;;;;;9.18;5.07;;;-1.30;99.90;;;;;;5051253;28;20053;-82
2022/11/19 06:33:47;;;;;;;9.93;5.75;;;-1.30;99.90;;;;;;5051785;28;20373;-80
2022/11/19 06:36:13;;;;;;;10.43;4.50;;;-1.30;99.90;;;;;;5035133;28;20487;-82
2022/11/19 06:38:40;;;;;;;10.75;5.03;;;-1.30;99.90;;;;;;5033880;28;20117;-85
2022/11/19 06:41:06;;;;;;;7.40;4.75;;;-1.30;99.90;;;;;;5051867;28;20048;-81
2022/11/19 06:43:32;;;;;;;9.75;5.05;;;-1.30;99.90;;;;;;5051997;28;20111;-79
2022/11/19 06:45:57;;;;;;;8.80;4.95;;;-1.30;99.90;;;;;;5051727;28;20065;-83
2022/11/19 06:48:26;;;;;;;9.82;5.10;;;-1.30;99.90;;;;;;5033996;28;20458;-82
2022/11/19 06:50:52;;;;;;;10.23;5.18;;;-1.30;99.90;;;;;;5033857;28;20041;-82
2022/11/19 06:53:17;;;;;;;8.70;4.63;;;-1.30;99.90;;;;;;5051586;28;20110;-82
2022/11/19 06:55:43;;;;;;;9.95;4.93;;;-1.30;99.90;;;;;;5033728;28;20095;-86
2022/11/19 06:58:09;;;;;;;9.20;4.90;;;-1.40;99.90;;;;;;5051388;28;20493;-82
2022/11/19 07:00:35;;;;;;;9.23;4.88;;;-1.30;99.90;;;;;;5051446;28;20056;-82
2022/11/19 07:03:01;;;;;;;15.20;5.30;;;-1.30;99.90;;;;;;5034150;28;20053;-83
2022/11/19 07:05:27;;;;;;;8.15;4.53;;;-1.30;99.90;;;;;;5052145;28;20049;-83
2022/11/19 07:07:53;;;;;;;9.88;5.10;;;-1.30;99.90;;;;;;5052397;28;20431;-82
2022/11/19 07:10:19;;;;;;;10.43;4.65;;;-1.30;99.90;;;;;;5033724;28;20497;-80
2022/11/19 07:12:45;;;;;;;8.73;4.70;;;-1.30;99.90;;;;;;5049966;28;20419;-82
2022/11/19 07:15:11;;;;;;;11.65;5.18;;;-1.40;99.90;;;;;;5033059;28;20052;-83
2022/11/19 07:17:37;;;;;;;9.75;4.53;;;-1.40;99.90;;;;;;5033588;28;20049;-86
2022/11/19 07:20:04;;;;;;;9.25;5.00;;;-1.40;99.90;;;;;;5016908;28;20643;-81
2022/11/19 07:22:30;;;;;;;12.65;5.13;;;-1.40;99.90;;;;;;5052295;28;20673;-80
2022/11/19 07:24:56;;;;;;;8.35;4.43;;;-1.40;99.90;;;;;;5052890;28;20052;-82
2022/11/19 07:27:22;;;;;;;9.25;5.03;;;-1.40;99.90;;;;;;5050739;28;20060;-81
2022/11/19 07:29:48;;;;;;;9.15;4.57;;;-1.40;99.90;;;;;;5033131;28;20135;-81
2022/11/19 07:32:14;;;;;;;8.38;4.70;;;-1.40;99.90;;;;;;5034615;28;20056;-84
2022/11/19 07:34:40;;;;;;;9.15;4.72;;;-1.40;99.90;;;;;;5035673;28;20114;-81
2022/11/19 07:37:06;;;;;;;9.68;5.00;;;-1.30;99.90;;;;;;5052114;28;20432;-81
2022/11/19 07:39:33;;;;;;;8.60;4.88;;;-1.30;99.90;;;;;;5051560;28;20041;-84
2022/11/19 07:44:43;;;;;;;9.43;5.13;;;-1.30;99.90;;;;;;5033153;28;20056;-81
2022/11/19 07:47:12;;;;;;;9.45;4.93;;;-1.20;99.90;;;;;;5052223;28;20401;-80
2022/11/19 07:49:41;;;;;;;11.18;5.68;;;-1.20;99.90;;;;;;5033258;28;20594;-82
2022/11/19 07:52:09;;;;;;;8.15;4.38;;;-1.20;99.90;;;;;;5033938;28;20518;-81
2022/11/19 07:54:35;;;;;;;9.43;5.05;;;-1.10;99.90;;;;;;5050709;28;20146;-84
2022/11/19 07:57:01;;;;;;;11.15;5.47;;;-1.10;99.90;;;;;;5049777;28;20084;-85
2022/11/19 07:59:27;;;;;;;9.57;5.60;;;-1.00;99.90;;;;;;5051183;28;20111;-83
2022/11/19 08:01:53;;;;;;;9.75;4.97;;;-0.90;99.90;;;;;;5050708;28;20048;-83
2022/11/19 08:04:19;;;;;;;8.85;4.72;;;-0.90;99.90;;;;;;5051008;28;20049;-85
2022/11/19 08:06:48;;;;;;;9.65;4.82;;;-0.80;99.90;;;;;;5032526;28;20136;-79
2022/11/19 08:09:14;;;;;;;10.32;5.18;;;-0.70;99.90;;;;;;5032491;28;20084;-80
2022/11/19 08:11:39;;;;;;;9.90;4.82;;;-0.70;99.90;;;;;;5016950;28;20087;-83
2022/11/19 08:14:05;;;;;;;8.23;4.22;;;-0.60;99.90;;;;;;5033749;28;20429;-83
2022/11/19 08:19:17;;;;;;;9.40;4.88;;;-0.40;99.90;;;;;;5050388;28;20409;-80
2022/11/19 08:21:46;;;;;;;10.25;4.82;;;-0.30;99.90;;;;;;5032838;28;20045;-81
2022/11/19 08:24:13;;;;;;;7.70;3.85;;;-0.20;99.90;;;;;;5032459;28;20079;-83
2022/11/19 08:26:39;;;;;;;9.10;4.70;;;-0.20;99.90;;;;;;5049908;28;20101;-85
2022/11/19 08:29:06;;;;;;;11.65;5.85;;;-0.10;99.90;;;;;;5032505;28;20052;-83
2022/11/19 08:31:32;;;;;;;8.82;4.25;;;0.00;99.90;;;;;;5050690;28;20052;-81
2022/11/19 08:34:00;;;;;;;10.13;4.82;;;0.10;99.90;;;;;;5052276;28;20397;-86
2022/11/19 08:36:26;;;;;;;8.85;4.88;;;0.20;99.90;;;;;;5050958;28;20056;-84
2022/11/19 08:38:54;;;;;;;11.55;5.80;;;0.30;99.90;;;;;;5049818;28;20404;-86
2022/11/19 08:44:06;;;;;;;7.90;4.18;;;0.40;99.90;;;;;;4973406;28;20068;-82
2022/11/19 08:46:32;;;;;;;7.45;4.00;;;0.50;99.90;;;;;;5050379;28;20485;-86
2022/11/19 08:48:58;;;;;;;9.30;5.20;;;0.60;99.90;;;;;;5031959;28;20056;-85
